^^
Station Historical Data
Daily Summary for May 21, 2017 Units:  Metric    English   Both
« Previous Day
Next Day »
Daily Weekly Monthly Yearly Custom
  High: Low: Average:
Temperature: 28.8 °C 12.5 °C 21.4 °C
Dew Point: 0.8 °C -4.7 °C -2.7 °C
Humidity: 31% 13% 20%
Wind Speed: 13km/h 0km/h 2.7km/h
Wind Gust: 20.9km/h - -
Wind- - NNW
Pressure: 1020.9 hPa 1015.5 hPa -
Precipitation: 0 mm    
Historical Graphs
 
 
Tabular Data for May 21, 2017
Time Temperature Dew Point Pressure Wind Wind Speed Wind Gust Humidity Rainfall Rate (Hourly) solar Conditions
00:02 19.3 °C -3.6 °C 1019.2 hPa NNW 1.4 km/h 8 km/h 21% 0 mm 0.0 W/m2
01:03 19.7 °C -3.2 °C 1019.2 hPa Calm   9.7 km/h 21% 0 mm 0.0 W/m2
01:33 19.5 °C -3.4 °C 1018.8 hPa NNW 1.4 km/h 12.9 km/h 21% 0 mm 0.0 W/m2
01:48 19 °C -3.8 °C 1018.8 hPa NNW 13 km/h 17.7 km/h 21% 0 mm 0.0 W/m2
01:53 19 °C -3.8 °C 1018.8 hPa NNW 6.4 km/h 11.3 km/h 21% 0 mm 0.0 W/m2
01:58 18.9 °C -3.9 °C 1018.8 hPa Calm   11.3 km/h 21% 0 mm 0.0 W/m2
02:08 18.9 °C -3.9 °C 1018.8 hPa NNW 11.1 km/h 14.5 km/h 21% 0 mm 0.0 W/m2
02:33 19.3 °C -3.6 °C 1018.8 hPa Calm   17.7 km/h 21% 0 mm 0.0 W/m2
02:38 19.4 °C -3.5 °C 1018.5 hPa NNW 9.7 km/h 12.9 km/h 21% 0 mm 0.0 W/m2
02:48 19.1 °C -3.7 °C 1018.5 hPa NNW 9.7 km/h 14.5 km/h 21% 0 mm 0.0 W/m2
02:53 19 °C -3.8 °C 1018.5 hPa NNW 7.9 km/h 12.9 km/h 21% 0 mm 0.0 W/m2
02:58 19 °C -3.8 °C 1018.5 hPa NNW 7.9 km/h 14.5 km/h 21% 0 mm 0.0 W/m2
03:08 19 °C -3.8 °C 1018.5 hPa NNW 11.1 km/h 12.9 km/h 21% 0 mm 0.0 W/m2
03:23 18.8 °C -3.4 °C 1018.5 hPa NNW 11.1 km/h 12.9 km/h 22% 0 mm 0.0 W/m2
03:34 18.9 °C -3.3 °C 1018.5 hPa NNW 11.1 km/h 17.7 km/h 22% 0 mm 0.0 W/m2
03:43 19 °C -3.2 °C 1018.5 hPa NNW 1.4 km/h 11.3 km/h 22% 0 mm 0.0 W/m2
03:48 19 °C -3.2 °C 1018.5 hPa NNW 3.2 km/h 12.9 km/h 22% 0 mm 0.0 W/m2
03:54 19 °C -3.2 °C 1018.5 hPa NNW 1.4 km/h 9.7 km/h 22% 0 mm 0.0 W/m2
04:04 18.7 °C -3.5 °C 1018.5 hPa NNW 6.4 km/h 11.3 km/h 22% 0 mm 0.0 W/m2
04:14 18.9 °C -3.3 °C 1018.5 hPa NNW 6.4 km/h 11.3 km/h 22% 0 mm 0.0 W/m2
04:19 18.7 °C -4.1 °C 1018.5 hPa Calm   11.3 km/h 21% 0 mm 0.0 W/m2
04:24 18.5 °C -3.6 °C 1018.5 hPa NNW 7.9 km/h 9.7 km/h 22% 0 mm 0.0 W/m2
04:29 17.9 °C -4.1 °C 1018.5 hPa Calm     22% 0 mm 0.0 W/m2
04:34 17.5 °C -3.9 °C 1018.5 hPa Calm     23% 0 mm 0.0 W/m2
04:39 17.2 °C -4.1 °C 1018.8 hPa Calm     23% 0 mm 0.0 W/m2
04:44 16.8 °C -3.9 °C 1018.8 hPa Calm     24% 0 mm 0.0 W/m2
04:49 16.2 °C -4.4 °C 1018.8 hPa Calm     24% 0 mm 0.0 W/m2
04:55 15.7 °C -4.3 °C 1018.8 hPa Calm     25% 0 mm 0.0 W/m2
05:00 15.4 °C -4 °C 1018.8 hPa Calm     26% 0 mm 0.0 W/m2
05:05 15.1 °C -4.3 °C 1018.8 hPa Calm     26% 0 mm 0.0 W/m2
05:15 14.4 °C -4.4 °C 1019.2 hPa Calm     27% 0 mm 0.0 W/m2
05:20 14.3 °C -4.5 °C 1019.2 hPa Calm     27% 0 mm 0.0 W/m2
05:26 14.2 °C -4.5 °C 1019.2 hPa Calm     27% 0 mm 0.0 W/m2
05:36 13.8 °C -4.4 °C 1019.5 hPa Calm     28% 0 mm 0.0 W/m2
05:42 13.9 °C -4.3 °C 1019.5 hPa Calm     28% 0 mm 0.0 W/m2
05:47 14.2 °C -4.1 °C 1019.5 hPa Calm     28% 0 mm 0.0 W/m2
05:52 13.9 °C -4.3 °C 1019.5 hPa Calm     28% 0 mm 0.0 W/m2
05:59 13.5 °C -4.7 °C 1019.9 hPa Calm     28% 0 mm 0.0 W/m2
06:29 12.5 °C -4.2 °C 1020.2 hPa Calm     31% 0 mm 5.0 W/m2
06:39 13.2 °C -4 °C 1020.5 hPa Calm     30% 0 mm 11.0 W/m2
06:44 13.4 °C -3.8 °C 1020.5 hPa Calm     30% 0 mm 12.0 W/m2
06:49 13.6 °C -4.1 °C 1020.5 hPa Calm     29% 0 mm 14.0 W/m2
06:55 13.4 °C -4.3 °C 1020.5 hPa Calm     29% 0 mm 16.0 W/m2
07:00 13.3 °C -3.9 °C 1020.5 hPa Calm     30% 0 mm 18.0 W/m2
07:06 13.3 °C -3.9 °C 1020.5 hPa Calm     30% 0 mm 19.0 W/m2
07:11 13.4 °C -3.8 °C 1020.5 hPa Calm     30% 0 mm 23.0 W/m2
07:20 13.8 °C -3.5 °C 1020.5 hPa NNW 3.2 km/h 11.3 km/h 30% 0 mm 105.0 W/m2
07:30 14.6 °C -3.2 °C 1020.5 hPa NNW 1.4 km/h 9.7 km/h 29% 0 mm 141.0 W/m2
07:35 15.1 °C -3.3 °C 1020.5 hPa Calm   8 km/h 28% 0 mm 162.0 W/m2
07:45 16.1 °C -2.9 °C 1020.5 hPa Calm   3.2 km/h 27% 0 mm 200.0 W/m2
07:50 16.5 °C -2.6 °C 1020.9 hPa Calm     27% 0 mm 220.0 W/m2
07:55 17.1 °C -2.6 °C 1020.9 hPa Calm   1.6 km/h 26% 0 mm 239.0 W/m2
08:02 17.6 °C -2.1 °C 1020.9 hPa Calm     26% 0 mm 255.0 W/m2
08:36 20.2 °C -2.2 °C 1020.5 hPa NNW 1.4 km/h 1.6 km/h 22% 0 mm 359.0 W/m2
08:42 20.5 °C -2 °C 1020.5 hPa NNW 7.9 km/h 8 km/h 22% 0 mm 373.0 W/m2
08:47 20.7 °C -1.8 °C 1020.5 hPa NNW 6.4 km/h 11.3 km/h 22% 0 mm 383.0 W/m2
09:01 21.4 °C -1.8 °C 1020.2 hPa NNW 7.9 km/h 14.5 km/h 21% 0 mm 422.0 W/m2
09:16 21.8 °C -1.5 °C 1020.2 hPa NNW 7.9 km/h 11.3 km/h 21% 0 mm 461.0 W/m2
09:21 22.1 °C -1.3 °C 1020.2 hPa NNW 9.7 km/h 12.9 km/h 21% 0 mm 469.0 W/m2
09:27 22.2 °C -1.2 °C 1020.2 hPa Calm   12.9 km/h 21% 0 mm 483.0 W/m2
09:37 22.7 °C -1.4 °C 1020.2 hPa Calm   9.7 km/h 20% 0 mm 508.0 W/m2
09:42 22.9 °C -1.3 °C 1020.2 hPa Calm   3.2 km/h 20% 0 mm 517.0 W/m2
09:47 22.9 °C -1.3 °C 1020.2 hPa NNW 7.9 km/h 8 km/h 20% 0 mm 524.0 W/m2
09:57 22.9 °C -1.3 °C 1020.2 hPa NNW 9.7 km/h 12.9 km/h 20% 0 mm 541.0 W/m2
10:02 22.9 °C -1.3 °C 1020.2 hPa Calm     20% 0 mm 550.0 W/m2
10:07 23.2 °C -1 °C 1020.2 hPa Calm   8 km/h 20% 0 mm 559.0 W/m2
10:53 24.8 °C -0.4 °C 1019.5 hPa NNW 9.7 km/h 17.7 km/h 19% 0 mm 615.0 W/m2
10:58 24.9 °C -0.3 °C 1019.5 hPa NNW 3.2 km/h 8 km/h 19% 0 mm 617.0 W/m2
11:03 24.9 °C -0.3 °C 1019.2 hPa NNW 6.4 km/h 12.9 km/h 19% 0 mm 621.0 W/m2
11:08 25.1 °C -0.1 °C 1019.2 hPa NNW 7.9 km/h 8 km/h 19% 0 mm 626.0 W/m2
11:14 25.3 °C 0 °C 1019.2 hPa NNW 9.7 km/h 9.7 km/h 19% 0 mm 628.0 W/m2
11:19 25.4 °C -0.6 °C 1019.2 hPa NNW 3.2 km/h 11.3 km/h 18% 0 mm 631.0 W/m2
11:24 25.4 °C 0.1 °C 1018.8 hPa NNW 9.7 km/h 14.5 km/h 19% 0 mm 633.0 W/m2
12:18 27.2 °C 0.8 °C 1017.8 hPa NNW 1.4 km/h 1.6 km/h 18% 0 mm 628.0 W/m2
12:24 27.4 °C 0.2 °C 1017.8 hPa NNW 6.4 km/h 12.9 km/h 17% 0 mm 624.0 W/m2
12:34 27.3 °C 0.1 °C 1017.5 hPa Calm   6.4 km/h 17% 0 mm 619.0 W/m2
12:55 28.1 °C -0.1 °C 1017.2 hPa NNW 7.9 km/h 8 km/h 16% 0 mm 596.0 W/m2
13:05 28.1 °C -1 °C 1017.2 hPa NNW 1.4 km/h 20.9 km/h 15% 0 mm 582.0 W/m2
13:14 28.4 °C -0.7 °C 1016.8 hPa NNW 7.9 km/h 17.7 km/h 15% 0 mm 571.0 W/m2
13:26 28.2 °C -1.8 °C 1016.8 hPa NNW 1.4 km/h 8 km/h 14% 0 mm 555.0 W/m2
13:35 28.6 °C -2.5 °C 1016.5 hPa Calm   19.3 km/h 13% 0 mm 538.0 W/m2
13:41 28.7 °C -2.4 °C 1016.5 hPa NNW 1.4 km/h 17.7 km/h 13% 0 mm 531.0 W/m2
13:53 28.4 °C -2.7 °C 1016.5 hPa NNW 6.4 km/h 12.9 km/h 13% 0 mm 508.0 W/m2
14:02 28.8 °C -2.4 °C 1016.1 hPa Calm     13% 0 mm 487.0 W/m2
14:11 28.4 °C -1.7 °C 1016.1 hPa NNW 13 km/h 20.9 km/h 14% 0 mm 464.0 W/m2
14:16 28.5 °C -1.6 °C 1016.1 hPa Calm   11.3 km/h 14% 0 mm 454.0 W/m2
14:25 28.8 °C -2.4 °C 1015.8 hPa NNW 6.4 km/h 14.5 km/h 13% 0 mm 432.0 W/m2
14:31 28.6 °C -2.5 °C 1016.1 hPa Calm   8 km/h 13% 0 mm 418.0 W/m2
14:36 28.7 °C -2.4 °C 1015.8 hPa NNW 1.4 km/h 14.5 km/h 13% 0 mm 408.0 W/m2
14:41 28.8 °C -2.4 °C 1015.8 hPa NNW 1.4 km/h 3.2 km/h 13% 0 mm 394.0 W/m2
14:52 28.7 °C -2.4 °C 1015.8 hPa Calm   12.9 km/h 13% 0 mm 366.0 W/m2
14:57 28.7 °C -2.4 °C 1015.8 hPa Calm   14.5 km/h 13% 0 mm 353.0 W/m2
15:06 28.4 °C -1.7 °C 1015.8 hPa Calm     14% 0 mm 325.0 W/m2
15:12 28.6 °C -1.5 °C 1015.8 hPa Calm   17.7 km/h 14% 0 mm 311.0 W/m2
15:16 28.6 °C -1.5 °C 1015.8 hPa Calm   8 km/h 14% 0 mm 295.0 W/m2
15:23 28.5 °C -1.6 °C 1015.8 hPa Calm   8 km/h 14% 0 mm 278.0 W/m2
15:35 28.1 °C -1.9 °C 1015.8 hPa Calm     14% 0 mm 248.0 W/m2
15:46 28.3 °C -2.8 °C 1015.8 hPa NNW 3.2 km/h 9.7 km/h 13% 0 mm 216.0 W/m2
15:54 28.2 °C -1.8 °C 1015.8 hPa Calm   6.4 km/h 14% 0 mm 178.0 W/m2
16:02 28.3 °C -1.8 °C 1015.5 hPa Calm     14% 0 mm 137.0 W/m2
16:10 28.2 °C -2.8 °C 1015.8 hPa NNW 3.2 km/h 8 km/h 13% 0 mm 120.0 W/m2
16:21 28.2 °C -2.8 °C 1015.8 hPa Calm     13% 0 mm 84.0 W/m2
16:32 28.3 °C -1.8 °C 1015.8 hPa Calm     14% 0 mm 56.0 W/m2
16:38 27.9 °C -3.1 °C 1015.8 hPa Calm   9.7 km/h 13% 0 mm 30.0 W/m2
16:51 27.3 °C -2.5 °C 1015.8 hPa Calm     14% 0 mm 14.0 W/m2
17:00 26.8 °C -2.9 °C 1015.8 hPa Calm     14% 0 mm 7.0 W/m2
17:06 26.4 °C -3.3 °C 1015.8 hPa Calm     14% 0 mm 5.0 W/m2
17:20 25.8 °C -2.8 °C 1015.8 hPa Calm     15% 0 mm 0.0 W/m2
17:33 25.3 °C -3.2 °C 1015.8 hPa Calm     15% 0 mm 0.0 W/m2
17:42 25.2 °C -2.4 °C 1016.1 hPa Calm     16% 0 mm 0.0 W/m2
18:04 23.7 °C -2.8 °C 1016.1 hPa Calm     17% 0 mm 0.0 W/m2
18:17 23.2 °C -3.2 °C 1016.1 hPa Calm     17% 0 mm 0.0 W/m2
18:33 21.3 °C -4 °C 1016.1 hPa Calm   1.6 km/h 18% 0 mm 0.0 W/m2
18:48 20.2 °C -4.2 °C 1016.1 hPa Calm     19% 0 mm 0.0 W/m2
19:19 19 °C -3.8 °C 1016.8 hPa Calm     21% 0 mm 0.0 W/m2
19:51 18.2 °C -4.5 °C 1016.8 hPa Calm     21% 0 mm 0.0 W/m2
20:06 18.3 °C -3.8 °C 1016.8 hPa Calm     22% 0 mm 0.0 W/m2
20:21 18.6 °C -2.9 °C 1016.8 hPa Calm     23% 0 mm 0.0 W/m2
20:36 18.7 °C -3.5 °C 1016.8 hPa Calm     22% 0 mm 0.0 W/m2
20:49 18.7 °C -3.5 °C 1016.8 hPa Calm   3.2 km/h 22% 0 mm 0.0 W/m2
21:01 18.4 °C -3.1 °C 1016.8 hPa Calm     23% 0 mm 0.0 W/m2
21:12 18.5 °C -3 °C 1016.8 hPa Calm   6.4 km/h 23% 0 mm 0.0 W/m2
21:27 19.3 °C -3 °C 1016.8 hPa NNW 6.4 km/h 6.4 km/h 22% 0 mm 0.0 W/m2
21:47 20.2 °C -2.2 °C 1016.8 hPa NNW 9.7 km/h 19.3 km/h 22% 0 mm 0.0 W/m2
21:55 20.3 °C -2.1 °C 1016.5 hPa NNW 11.1 km/h 14.5 km/h 22% 0 mm 0.0 W/m2
Canyon Roadhouse, Fishriver Canyon, Namibia
Compliments of Weather Underground - 2.25 mb